Terminal Aerodrome Forecast
Issued by NWS Jacksonville, FL

Home | Current Version | Previous Version | Text Only | Print | Product List | Glossary On
Versions: 1 2 3 4 5 6 7 8 9 10 11 12 13 14 15 16 17 18 19
699
FTUS42 KJAX 191559 AAC
TAFGNV
TAF AMD
KGNV 191559Z 1916/2012 24003KT 2SM BR BKN002 BKN250
     FM191630 24005KT 4SM BR BKN005 BKN250
     FM191700 24005KT 6SM BR BKN008 BKN250
     FM191730 23006KT P6SM SCT020 BKN250
     FM192000 14008KT P6SM SCT050 BKN250=

USA.gov is the U.S. government's official web portal to all federal, state and local government web resources and services.